Time;durP1;ratioP1;P1;durP2;ratioP2;P2;SDS_P1;SDS_P2;PMS_P1;PMS_P2;Temp;Humidity;BMP_temperature;BMP_pressure;BME280_temperature;BME280_humidity;BME280_pressure;Samples;Min_cycle;Max_cycle;Signal;HPM_P1;HPM_P2
2023/04/29 00:01:57;;;;;;;47.33;25.90;;;13.00;99.90;;;;;;5095144;28;20187;-76
2023/04/29 00:04:46;;;;;;;52.53;27.33;;;12.90;99.90;;;;;;5095298;28;20192;-76
2023/04/29 00:07:17;;;;;;;48.77;26.33;;;12.80;99.90;;;;;;5095056;28;20196;-75
2023/04/29 00:09:43;;;;;;;47.23;25.77;;;12.90;99.90;;;;;;5095496;28;20170;-77
2023/04/29 00:12:10;;;;;;;48.27;25.47;;;12.90;99.90;;;;;;5094918;28;20230;-77
2023/04/29 00:14:41;;;;;;;50.37;24.97;;;12.80;99.90;;;;;;5095258;28;20260;-76
2023/04/29 00:17:12;;;;;;;47.77;26.70;;;12.70;99.90;;;;;;5095449;28;20180;-75
2023/04/29 00:20:01;;;;;;;47.63;26.40;;;12.60;99.90;;;;;;5095576;28;20180;-76
2023/04/29 00:22:27;;;;;;;46.57;25.37;;;12.60;99.90;;;;;;5095929;28;20215;-76
2023/04/29 00:25:06;;;;;;;43.60;24.67;;;12.50;99.90;;;;;;5095043;28;20172;-75
2023/04/29 00:27:34;;;;;;;41.77;24.40;;;12.40;99.90;;;;;;5098988;28;20170;-75
2023/04/29 00:30:02;;;;;;;51.57;26.57;;;12.30;99.90;;;;;;5099451;28;20174;-75
2023/04/29 00:33:04;;;;;;;48.30;25.33;;;12.30;99.90;;;;;;5099299;28;20189;-77
2023/04/29 00:35:33;;;;;;;44.70;25.80;;;12.30;99.90;;;;;;5117540;28;20723;-76
2023/04/29 00:38:23;;;;;;;44.23;24.33;;;12.50;99.90;;;;;;5098717;28;20189;-77
2023/04/29 00:40:56;;;;;;;43.07;24.73;;;12.60;99.90;;;;;;5125043;27;20196;-77
2023/04/29 00:43:34;;;;;;;47.07;25.73;;;12.60;99.90;;;;;;5119135;27;20181;-77
2023/04/29 00:46:03;;;;;;;42.57;24.33;;;12.60;99.90;;;;;;5119397;27;20547;-76
2023/04/29 00:48:32;;;;;;;45.03;25.27;;;12.50;99.90;;;;;;5119510;27;20190;-76
2023/04/29 00:51:04;;;;;;;49.30;25.93;;;12.40;99.90;;;;;;5119004;27;20180;-77
2023/04/29 00:53:40;;;;;;;42.20;24.67;;;12.40;99.90;;;;;;5137024;27;20160;-76
2023/04/29 00:56:10;;;;;;;41.87;24.00;;;12.40;99.90;;;;;;5119052;27;20428;-76
2023/04/29 00:58:48;;;;;;;39.87;24.70;;;12.40;99.90;;;;;;5119769;27;20169;-77
2023/04/29 01:01:20;;;;;;;44.20;24.30;;;12.40;99.90;;;;;;5118787;27;20180;-77
2023/04/29 01:03:50;;;;;;;45.30;25.50;;;12.40;99.90;;;;;;5118876;27;20520;-77
2023/04/29 01:06:18;;;;;;;41.33;23.93;;;12.40;99.90;;;;;;5118391;27;20189;-77
2023/04/29 01:08:53;;;;;;;39.47;23.53;;;12.30;99.90;;;;;;5118594;27;20191;-77
2023/04/29 01:11:23;;;;;;;37.87;21.70;;;12.20;99.90;;;;;;5118994;27;20632;-77
2023/04/29 01:13:59;;;;;;;42.70;23.37;;;12.00;99.90;;;;;;5118571;27;20259;-76
2023/04/29 01:16:43;;;;;;;39.80;23.00;;;12.00;99.90;;;;;;5118267;27;20202;-77
2023/04/29 01:19:37;;;;;;;42.57;23.77;;;12.10;99.90;;;;;;5118944;27;20254;-76
2023/04/29 01:22:07;;;;;;;41.00;24.73;;;12.00;99.90;;;;;;5118234;27;20184;-76
2023/04/29 01:25:00;;;;;;;39.70;22.83;;;12.10;99.90;;;;;;5118268;27;20620;-77
2023/04/29 01:27:57;;;;;;;46.03;23.63;;;12.10;99.90;;;;;;5136850;27;20196;-76
2023/04/29 01:31:05;;;;;;;43.17;22.43;;;12.00;99.90;;;;;;5118278;27;20213;-77
2023/04/29 01:33:45;;;;;;;48.07;24.27;;;12.00;99.90;;;;;;5118178;27;20187;-76
2023/04/29 01:36:29;;;;;;;43.40;24.50;;;12.00;99.90;;;;;;5117593;27;20221;-77
2023/04/29 01:39:42;;;;;;;47.27;24.03;;;12.00;99.90;;;;;;5116678;27;20268;-76
2023/04/29 01:43:02;;;;;;;45.87;25.10;;;12.00;99.90;;;;;;5117629;27;20186;-77
2023/04/29 01:45:34;;;;;;;49.80;26.07;;;12.10;99.90;;;;;;5068092;27;20181;-77
2023/04/29 01:48:02;;;;;;;45.90;24.57;;;11.90;99.90;;;;;;5117346;27;20184;-77
2023/04/29 01:50:31;;;;;;;51.83;26.00;;;12.10;99.90;;;;;;5117298;27;20178;-78
2023/04/29 01:53:00;;;;;;;52.10;27.27;;;12.10;99.90;;;;;;5118044;27;20186;-77
2023/04/29 01:55:27;;;;;;;46.37;26.47;;;12.00;99.90;;;;;;5135080;27;20186;-77
2023/04/29 01:57:54;;;;;;;48.43;25.37;;;12.00;99.90;;;;;;5109480;27;20182;-77
2023/04/29 02:00:26;;;;;;;40.20;24.50;;;11.90;99.90;;;;;;5117380;27;20185;-77
2023/04/29 02:03:33;;;;;;;45.03;26.27;;;11.90;99.90;;;;;;5117036;27;20210;-77
2023/04/29 02:06:17;;;;;;;43.63;24.67;;;11.90;99.90;;;;;;5096842;28;20262;-76
2023/04/29 02:08:47;;;;;;;43.40;24.73;;;11.90;99.90;;;;;;5096946;28;20734;-75
2023/04/29 02:11:16;;;;;;;43.70;26.13;;;11.70;99.90;;;;;;5096858;28;20553;-76
2023/04/29 02:13:59;;;;;;;50.37;26.20;;;11.60;99.90;;;;;;5097100;28;20220;-77
2023/04/29 02:16:28;;;;;;;44.77;24.00;;;11.70;99.90;;;;;;5097287;28;20201;-77
2023/04/29 02:18:57;;;;;;;43.33;23.23;;;11.70;99.90;;;;;;5115049;28;20783;-76
2023/04/29 02:21:26;;;;;;;39.23;24.00;;;11.70;99.90;;;;;;5096197;28;20206;-76
2023/04/29 02:23:53;;;;;;;35.80;20.20;;;11.80;99.90;;;;;;5096553;28;20169;-77
2023/04/29 02:26:41;;;;;;;31.13;19.13;;;11.80;99.90;;;;;;5096728;28;20272;-76
2023/04/29 02:29:13;;;;;;;30.93;18.93;;;11.80;99.90;;;;;;5096281;28;20203;-77
2023/04/29 02:31:40;;;;;;;23.63;14.90;;;11.80;99.90;;;;;;5096502;28;20225;-78
2023/04/29 02:34:06;;;;;;;24.80;16.77;;;11.70;99.90;;;;;;5097161;28;20179;-75
2023/04/29 02:36:35;;;;;;;27.17;15.57;;;11.90;99.90;;;;;;5096681;28;20335;-78
2023/04/29 02:39:01;;;;;;;26.53;16.47;;;11.70;99.90;;;;;;5097159;28;20219;-76
2023/04/29 02:41:33;;;;;;;26.13;17.77;;;11.60;99.90;;;;;;5096989;28;20273;-77
2023/04/29 02:44:00;;;;;;;40.30;20.43;;;11.50;99.90;;;;;;5114752;28;20249;-77
2023/04/29 02:46:28;;;;;;;30.40;18.50;;;11.50;99.90;;;;;;5096816;28;20181;-77
2023/04/29 02:48:57;;;;;;;32.63;19.20;;;11.50;99.90;;;;;;5114412;28;20804;-77
2023/04/29 02:51:45;;;;;;;27.87;17.67;;;11.30;99.90;;;;;;5096076;28;20192;-76
2023/04/29 02:54:23;;;;;;;29.00;17.83;;;11.20;99.90;;;;;;5096989;28;20273;-76
2023/04/29 02:56:49;;;;;;;27.47;16.80;;;11.20;99.90;;;;;;5096467;28;20201;-77
2023/04/29 02:59:18;;;;;;;29.23;16.73;;;11.30;99.90;;;;;;5095866;28;20202;-77
2023/04/29 03:01:47;;;;;;;26.17;15.47;;;11.40;99.90;;;;;;5095698;28;20207;-75
2023/04/29 03:04:16;;;;;;;22.97;14.47;;;11.50;99.90;;;;;;5096451;28;20201;-76
2023/04/29 03:06:44;;;;;;;22.70;15.03;;;11.60;99.90;;;;;;5096028;28;20527;-77
2023/04/29 03:09:53;;;;;;;24.27;14.53;;;11.60;99.90;;;;;;5114231;28;20200;-77
2023/04/29 03:12:44;;;;;;;21.77;14.60;;;11.60;99.90;;;;;;5096331;28;20212;-76
2023/04/29 03:15:14;;;;;;;27.23;16.57;;;11.50;99.90;;;;;;5095916;28;20214;-76
2023/04/29 03:17:58;;;;;;;21.20;15.47;;;11.50;99.90;;;;;;5095712;28;20181;-76
2023/04/29 03:20:32;;;;;;;24.90;16.67;;;11.50;99.90;;;;;;5113717;28;20236;-77
2023/04/29 03:23:01;;;;;;;24.60;15.53;;;11.40;99.90;;;;;;5095675;28;20253;-75
2023/04/29 03:25:33;;;;;;;25.87;15.73;;;11.30;99.90;;;;;;5095909;28;20661;-78
2023/04/29 03:28:02;;;;;;;23.73;14.13;;;11.40;99.90;;;;;;5095721;28;20710;-76
2023/04/29 03:30:27;;;;;;;21.03;13.60;;;11.40;99.90;;;;;;5096586;28;20265;-77
2023/04/29 03:32:56;;;;;;;17.23;10.47;;;11.50;99.90;;;;;;5114837;28;20208;-76
2023/04/29 03:35:23;;;;;;;18.40;11.43;;;11.50;99.90;;;;;;5096616;28;20206;-76
2023/04/29 03:38:09;;;;;;;18.23;12.47;;;11.60;99.90;;;;;;5096722;28;20205;-76
2023/04/29 03:40:37;;;;;;;25.27;11.73;;;11.70;99.90;;;;;;5115058;28;20166;-76
2023/04/29 03:43:03;;;;;;;19.20;12.00;;;11.60;99.90;;;;;;5096149;28;20170;-76
2023/04/29 03:45:30;;;;;;;20.57;13.20;;;11.60;99.90;;;;;;5115294;28;20630;-76
2023/04/29 03:47:59;;;;;;;26.60;15.77;;;11.70;99.90;;;;;;5095541;28;20715;-76
2023/04/29 03:50:29;;;;;;;25.57;15.90;;;11.50;99.90;;;;;;5095416;28;20209;-76
2023/04/29 03:52:59;;;;;;;23.80;16.07;;;11.40;99.90;;;;;;5114562;28;20209;-79
2023/04/29 03:55:26;;;;;;;28.97;16.70;;;11.40;99.90;;;;;;5096348;28;20198;-79
2023/04/29 03:57:51;;;;;;;27.10;17.43;;;11.40;99.90;;;;;;5093524;28;20182;-79
2023/04/29 04:00:17;;;;;;;29.00;18.50;;;11.40;99.90;;;;;;5091117;28;20623;-81
2023/04/29 04:02:43;;;;;;;29.13;17.67;;;11.50;99.90;;;;;;5095884;28;20204;-80
2023/04/29 04:05:09;;;;;;;31.93;19.40;;;11.50;99.90;;;;;;5097382;28;20242;-79
2023/04/29 04:07:35;;;;;;;32.73;19.40;;;11.60;99.90;;;;;;5082013;28;20286;-80
2023/04/29 04:10:01;;;;;;;30.73;20.23;;;11.60;99.90;;;;;;5099244;28;20608;-80
2023/04/29 04:12:27;;;;;;;32.17;19.00;;;11.50;99.90;;;;;;5098556;28;20185;-80
2023/04/29 04:14:54;;;;;;;33.40;20.40;;;11.40;99.90;;;;;;5098541;28;20182;-80
2023/04/29 04:17:19;;;;;;;38.63;21.20;;;11.50;99.90;;;;;;5117449;28;20255;-80
2023/04/29 04:19:45;;;;;;;35.00;21.13;;;11.60;99.90;;;;;;5099812;28;20264;-80
2023/04/29 04:22:11;;;;;;;37.03;20.97;;;11.60;99.90;;;;;;5117246;28;20170;-79
2023/04/29 04:24:37;;;;;;;35.70;21.07;;;11.50;99.90;;;;;;5113759;27;20176;-80
2023/04/29 04:27:04;;;;;;;39.23;21.43;;;11.50;99.90;;;;;;5137014;27;20197;-79
2023/04/29 04:29:29;;;;;;;37.03;22.57;;;11.50;99.90;;;;;;5119475;27;20545;-80
2023/04/29 04:31:55;;;;;;;36.53;21.90;;;11.50;99.90;;;;;;5118687;27;20571;-80
2023/04/29 04:34:21;;;;;;;37.50;21.30;;;11.50;99.90;;;;;;5118950;27;20236;-80
2023/04/29 04:36:47;;;;;;;33.97;22.27;;;11.40;99.90;;;;;;5119280;27;20197;-81
2023/04/29 04:39:13;;;;;;;30.17;19.20;;;11.60;99.90;;;;;;5119320;27;20177;-80
2023/04/29 04:41:39;;;;;;;30.27;18.33;;;11.50;99.90;;;;;;5118672;27;20186;-79
2023/04/29 04:44:05;;;;;;;31.57;18.97;;;11.30;99.90;;;;;;5118593;27;20178;-77
2023/04/29 04:46:31;;;;;;;30.87;18.37;;;11.30;99.90;;;;;;5118468;27;20192;-80
2023/04/29 04:48:57;;;;;;;28.67;18.33;;;11.30;99.90;;;;;;5119331;27;20805;-80
2023/04/29 04:51:23;;;;;;;29.40;19.73;;;11.20;99.90;;;;;;5119524;27;20281;-80
2023/04/29 04:53:48;;;;;;;27.80;17.17;;;11.30;99.90;;;;;;5118987;27;20190;-79
2023/04/29 04:56:14;;;;;;;29.97;19.03;;;11.20;99.90;;;;;;5119308;27;20209;-81
2023/04/29 04:58:40;;;;;;;30.53;17.17;;;11.20;99.90;;;;;;5119125;27;20180;-79
2023/04/29 05:01:06;;;;;;;27.00;17.77;;;11.20;99.90;;;;;;5119026;27;20264;-79
2023/04/29 05:03:32;;;;;;;24.57;15.93;;;11.30;99.90;;;;;;5119658;27;20212;-80
2023/04/29 05:05:59;;;;;;;25.50;16.23;;;11.20;99.90;;;;;;5119232;27;20206;-80
2023/04/29 05:08:25;;;;;;;29.70;16.10;;;11.20;99.90;;;;;;5118864;27;20199;-79
2023/04/29 05:10:51;;;;;;;26.80;16.47;;;11.40;99.90;;;;;;5119515;27;20181;-79
2023/04/29 05:13:17;;;;;;;25.60;15.47;;;11.30;99.90;;;;;;5108787;28;20177;-79
2023/04/29 05:15:45;;;;;;;24.50;16.33;;;11.40;99.90;;;;;;5107382;27;20200;-79
2023/04/29 05:18:11;;;;;;;24.90;15.77;;;11.30;99.90;;;;;;5093362;28;20162;-80
2023/04/29 05:20:37;;;;;;;24.17;16.13;;;11.20;99.90;;;;;;5088608;28;20616;-80
2023/04/29 05:23:03;;;;;;;23.63;14.80;;;11.40;99.90;;;;;;5097900;28;20202;-80
2023/04/29 05:25:29;;;;;;;22.30;14.77;;;11.30;99.90;;;;;;5129523;27;20297;-80
2023/04/29 05:27:55;;;;;;;26.80;15.73;;;11.30;99.90;;;;;;5117986;27;20685;-80
2023/04/29 05:30:22;;;;;;;27.43;15.43;;;11.30;99.90;;;;;;5116536;27;20188;-80
2023/04/29 05:32:51;;;;;;;26.57;15.33;;;11.30;99.90;;;;;;5101991;28;20530;-79
2023/04/29 05:35:19;;;;;;;24.87;15.00;;;11.30;99.90;;;;;;5098519;28;20204;-79
2023/04/29 05:37:46;;;;;;;23.90;15.03;;;11.30;99.90;;;;;;5112034;27;20527;-79
2023/04/29 05:40:12;;;;;;;24.73;15.63;;;11.30;99.90;;;;;;5137513;27;20161;-80
2023/04/29 05:42:38;;;;;;;28.20;16.83;;;11.30;99.90;;;;;;5118341;27;20668;-80
2023/04/29 05:45:04;;;;;;;23.50;15.53;;;11.40;99.90;;;;;;5111074;27;20181;-80
2023/04/29 05:47:31;;;;;;;27.53;15.80;;;11.30;99.90;;;;;;5106585;28;20174;-80
2023/04/29 05:49:59;;;;;;;26.80;16.53;;;11.30;99.90;;;;;;5097907;28;20163;-80
2023/04/29 05:52:26;;;;;;;30.33;16.00;;;11.40;99.90;;;;;;5113345;28;20638;-80
2023/04/29 05:54:52;;;;;;;27.77;17.30;;;11.50;99.90;;;;;;5135952;27;20284;-79
2023/04/29 05:57:19;;;;;;;25.37;16.93;;;11.60;99.90;;;;;;5118586;27;20217;-79
2023/04/29 05:59:45;;;;;;;25.90;16.20;;;11.50;99.90;;;;;;5118859;27;20271;-79
2023/04/29 06:02:13;;;;;;;25.00;15.20;;;11.50;99.90;;;;;;5119343;27;20266;-80
2023/04/29 06:04:40;;;;;;;24.00;15.77;;;11.50;99.90;;;;;;5100878;28;20167;-81
2023/04/29 06:07:07;;;;;;;26.17;15.33;;;11.50;99.90;;;;;;5098593;28;20644;-81
2023/04/29 06:09:34;;;;;;;26.53;15.80;;;11.40;99.90;;;;;;5098844;28;20179;-79
2023/04/29 06:12:01;;;;;;;31.37;15.50;;;11.60;99.90;;;;;;5098099;28;20645;-79
2023/04/29 06:14:27;;;;;;;25.33;15.17;;;11.50;99.90;;;;;;5101114;28;20672;-78
2023/04/29 06:16:53;;;;;;;23.73;15.77;;;11.60;99.90;;;;;;5096925;28;20284;-80
2023/04/29 06:19:19;;;;;;;21.33;14.57;;;11.70;99.90;;;;;;5096828;28;20199;-78
2023/04/29 06:21:45;;;;;;;23.17;15.07;;;11.60;99.90;;;;;;5097421;27;20179;-79
2023/04/29 06:24:10;;;;;;;26.13;15.17;;;11.60;99.90;;;;;;5126889;27;20190;-79
2023/04/29 06:26:36;;;;;;;23.43;14.57;;;11.60;99.90;;;;;;5097105;28;20274;-77
2023/04/29 06:29:02;;;;;;;31.37;16.03;;;11.60;99.90;;;;;;5126281;27;20177;-79
2023/04/29 06:31:28;;;;;;;23.53;16.00;;;11.60;99.90;;;;;;5117549;27;20708;-80
2023/04/29 06:33:53;;;;;;;19.37;14.60;;;11.40;99.90;;;;;;5115368;27;20172;-80
2023/04/29 06:36:40;;;;;;;23.03;15.00;;;11.40;99.90;;;;;;5111803;28;20207;-79
2023/04/29 06:39:07;;;;;;;27.40;15.83;;;11.60;99.90;;;;;;5115847;27;20197;-78
2023/04/29 06:41:33;;;;;;;19.70;14.37;;;11.70;99.90;;;;;;5095740;28;20183;-80
2023/04/29 06:44:06;;;;;;;27.27;14.73;;;11.50;99.90;;;;;;5116752;27;20575;-80
2023/04/29 06:46:44;;;;;;;22.10;15.90;;;11.40;99.90;;;;;;5117585;27;20190;-80
2023/04/29 06:49:13;;;;;;;25.73;16.40;;;11.40;99.90;;;;;;5098748;28;20268;-81
2023/04/29 06:51:42;;;;;;;25.87;15.80;;;11.50;99.90;;;;;;5096609;28;20171;-81
2023/04/29 06:54:11;;;;;;;25.10;16.90;;;11.50;99.90;;;;;;5095930;28;20539;-80
2023/04/29 06:56:36;;;;;;;24.57;16.83;;;11.40;99.90;;;;;;5096113;28;20217;-79
2023/04/29 06:59:18;;;;;;;24.77;16.83;;;11.40;99.90;;;;;;5114432;28;20241;-79
2023/04/29 07:01:44;;;;;;;28.63;18.20;;;11.40;99.90;;;;;;5096466;28;20169;-80
2023/04/29 07:04:12;;;;;;;26.43;18.13;;;11.50;99.90;;;;;;5101477;27;20181;-80
2023/04/29 07:06:39;;;;;;;25.40;17.03;;;11.50;99.90;;;;;;5116598;27;20270;-79
2023/04/29 07:09:07;;;;;;;26.33;17.33;;;11.60;99.90;;;;;;5116520;27;20207;-79
2023/04/29 07:11:36;;;;;;;26.20;18.33;;;11.70;99.90;;;;;;5117140;27;20179;-79
2023/04/29 07:14:06;;;;;;;28.63;18.07;;;11.70;99.90;;;;;;5116510;28;20175;-78
2023/04/29 07:16:39;;;;;;;29.83;18.47;;;11.80;99.90;;;;;;5116303;28;20210;-78
2023/04/29 07:19:32;;;;;;;31.50;19.20;;;11.90;99.90;;;;;;5116356;28;20326;-78
2023/04/29 07:21:59;;;;;;;32.03;19.17;;;12.00;99.90;;;;;;5134894;28;20166;-78
2023/04/29 07:24:27;;;;;;;26.57;18.90;;;11.90;99.90;;;;;;5116237;28;20180;-74
2023/04/29 07:26:53;;;;;;;29.73;18.90;;;11.90;99.90;;;;;;5116548;28;20183;-74
2023/04/29 07:29:20;;;;;;;31.33;19.60;;;11.70;99.90;;;;;;5135395;28;20171;-75
2023/04/29 07:31:48;;;;;;;28.40;19.10;;;11.70;99.90;;;;;;5115199;28;20267;-75
2023/04/29 07:34:15;;;;;;;36.67;20.97;;;11.80;99.90;;;;;;5135439;27;20178;-76
2023/04/29 07:36:44;;;;;;;33.43;21.93;;;12.00;99.90;;;;;;5120975;27;20261;-76
2023/04/29 07:39:11;;;;;;;33.73;22.27;;;12.10;99.90;;;;;;5095700;28;20238;-75
2023/04/29 07:41:43;;;;;;;35.27;24.20;;;12.00;99.90;;;;;;5134289;27;20161;-75
2023/04/29 07:44:09;;;;;;;44.87;26.17;;;11.90;99.90;;;;;;5138822;27;20173;-76
2023/04/29 07:46:38;;;;;;;32.67;21.93;;;11.90;99.90;;;;;;5133645;27;20230;-76
2023/04/29 07:49:06;;;;;;;34.00;21.67;;;12.00;99.90;;;;;;5115850;28;20637;-76
2023/04/29 07:51:41;;;;;;;30.70;21.23;;;12.10;99.90;;;;;;5115143;28;20272;-76
2023/04/29 07:54:12;;;;;;;31.93;21.53;;;12.10;99.90;;;;;;5105320;28;20216;-76
2023/04/29 07:56:38;;;;;;;28.13;20.10;;;12.30;99.90;;;;;;5098432;27;20190;-76
2023/04/29 07:59:07;;;;;;;29.70;21.27;;;12.40;99.90;;;;;;5128288;27;20206;-76
2023/04/29 08:01:32;;;;;;;34.33;21.53;;;12.40;99.90;;;;;;5123990;27;20712;-78
2023/04/29 08:03:58;;;;;;;34.40;21.27;;;12.30;99.90;;;;;;5112664;27;20179;-77
2023/04/29 08:06:26;;;;;;;30.77;19.90;;;12.40;99.90;;;;;;5113562;27;20221;-77
2023/04/29 08:08:55;;;;;;;37.03;21.30;;;12.50;99.90;;;;;;5134847;27;20592;-77
2023/04/29 08:11:27;;;;;;;30.50;19.53;;;12.70;99.90;;;;;;5117797;28;20183;-76
2023/04/29 08:13:57;;;;;;;27.63;19.77;;;12.90;99.90;;;;;;5117605;28;20576;-77
2023/04/29 08:16:43;;;;;;;35.00;21.67;;;12.90;99.90;;;;;;5103121;27;20195;-78
2023/04/29 08:19:27;;;;;;;28.43;19.17;;;13.20;99.90;;;;;;5122539;27;20160;-80
2023/04/29 08:22:10;;;;;;;30.60;20.10;;;13.40;99.90;;;;;;5098067;28;20224;-76
2023/04/29 08:24:44;;;;;;;30.57;20.67;;;13.50;99.90;;;;;;5104627;27;20729;-76
2023/04/29 08:27:13;;;;;;;28.20;19.67;;;13.60;99.90;;;;;;5119025;27;20649;-76
2023/04/29 08:29:49;;;;;;;32.77;19.97;;;13.70;99.90;;;;;;5137681;27;20245;-77
2023/04/29 08:32:24;;;;;;;27.20;20.07;;;13.70;99.90;;;;;;5119886;27;20216;-76
2023/04/29 08:34:50;;;;;;;33.73;20.27;;;13.80;99.90;;;;;;5137948;27;20168;-76
2023/04/29 08:37:19;;;;;;;33.40;20.90;;;13.90;99.90;;;;;;5118995;27;20197;-76
2023/04/29 08:39:48;;;;;;;26.63;18.70;;;14.10;99.90;;;;;;5137891;27;20228;-76
2023/04/29 08:42:19;;;;;;;28.30;19.13;;;14.00;99.90;;;;;;5119205;27;20177;-76
2023/04/29 08:44:52;;;;;;;28.03;19.80;;;13.80;99.90;;;;;;5119428;27;20593;-76
2023/04/29 08:47:33;;;;;;;26.20;19.27;;;13.80;99.90;;;;;;5137658;27;20180;-76
2023/04/29 08:50:12;;;;;;;27.40;19.17;;;13.90;99.90;;;;;;5130889;27;20216;-76
2023/04/29 08:52:38;;;;;;;25.60;17.67;;;13.90;99.90;;;;;;5119350;27;20927;-77
2023/04/29 08:55:04;;;;;;;23.93;16.97;;;13.90;99.90;;;;;;5099558;28;20174;-77
2023/04/29 08:57:41;;;;;;;23.73;17.30;;;13.80;99.90;;;;;;5099047;28;20248;-77
2023/04/29 09:00:13;;;;;;;24.63;17.53;;;14.00;99.90;;;;;;5117784;28;20183;-77
2023/04/29 09:03:24;;;;;;;27.63;17.53;;;14.10;99.90;;;;;;5116469;28;20177;-77
2023/04/29 09:05:59;;;;;;;26.47;18.50;;;14.00;99.90;;;;;;5110398;28;20190;-77
2023/04/29 09:08:39;;;;;;;24.53;17.27;;;14.00;99.90;;;;;;5116500;27;20208;-76
2023/04/29 09:11:09;;;;;;;29.00;17.57;;;13.90;99.90;;;;;;5114677;28;20246;-76
2023/04/29 09:13:37;;;;;;;27.03;17.60;;;14.00;99.90;;;;;;5097297;28;20190;-76
2023/04/29 09:16:09;;;;;;;28.13;17.40;;;13.90;99.90;;;;;;5097860;28;20217;-77
2023/04/29 09:18:57;;;;;;;27.10;17.83;;;13.70;99.90;;;;;;5100389;28;20689;-77
2023/04/29 09:21:31;;;;;;;26.47;17.47;;;13.80;99.90;;;;;;5077735;28;20159;-77
2023/04/29 09:23:59;;;;;;;22.90;17.03;;;13.90;99.90;;;;;;5095590;28;20174;-76
2023/04/29 09:26:42;;;;;;;25.87;17.87;;;14.10;99.90;;;;;;5095689;28;20635;-78
2023/04/29 09:29:47;;;;;;;29.70;17.13;;;14.30;99.90;;;;;;5077125;28;20557;-77
2023/04/29 09:32:20;;;;;;;24.73;17.13;;;14.60;99.90;;;;;;5103377;28;20189;-77
2023/04/29 09:34:47;;;;;;;25.50;17.53;;;14.60;99.90;;;;;;5115682;28;20256;-77
2023/04/29 09:37:25;;;;;;;25.27;17.70;;;14.80;99.90;;;;;;5114189;27;20212;-76
2023/04/29 09:39:50;;;;;;;26.27;16.97;;;14.80;99.90;;;;;;5098816;28;20181;-77
2023/04/29 09:42:16;;;;;;;28.83;17.63;;;15.10;99.90;;;;;;5095558;28;20166;-75
2023/04/29 09:44:43;;;;;;;24.03;17.73;;;15.00;99.90;;;;;;5095349;28;20188;-77
2023/04/29 09:47:09;;;;;;;23.07;16.50;;;15.00;99.90;;;;;;5096843;28;20221;-76
2023/04/29 09:49:44;;;;;;;23.07;17.53;;;15.00;99.90;;;;;;5113670;28;20194;-77
2023/04/29 09:52:12;;;;;;;27.57;18.43;;;14.80;99.90;;;;;;5097033;28;20196;-77
2023/04/29 09:54:39;;;;;;;24.67;17.33;;;14.90;99.90;;;;;;5096688;28;20592;-77
2023/04/29 09:57:07;;;;;;;22.57;17.47;;;15.10;99.90;;;;;;5096610;28;20202;-76
2023/04/29 09:59:39;;;;;;;25.47;17.53;;;15.10;99.90;;;;;;5095562;28;20183;-76
2023/04/29 10:02:19;;;;;;;27.77;16.97;;;15.40;99.90;;;;;;5096747;28;20580;-76
2023/04/29 10:04:47;;;;;;;26.87;17.67;;;16.00;99.90;;;;;;5114914;28;20166;-76
2023/04/29 10:07:16;;;;;;;24.33;17.00;;;16.30;99.90;;;;;;5114804;28;20674;-77
2023/04/29 10:09:45;;;;;;;22.00;15.47;;;16.60;99.90;;;;;;5114594;28;20593;-76
2023/04/29 10:12:13;;;;;;;23.87;17.10;;;17.00;99.90;;;;;;5096705;28;20193;-77
2023/04/29 10:14:45;;;;;;;23.80;15.37;;;17.10;99.90;;;;;;5114529;28;20167;-79
2023/04/29 10:17:19;;;;;;;18.57;14.17;;;17.60;99.90;;;;;;5114579;28;20213;-77
2023/04/29 10:19:50;;;;;;;19.80;15.47;;;18.10;99.90;;;;;;5114201;28;20282;-78
2023/04/29 10:22:26;;;;;;;21.37;16.00;;;18.30;99.90;;;;;;5114640;28;20160;-77
2023/04/29 10:24:54;;;;;;;22.70;16.03;;;18.30;99.90;;;;;;5096182;28;20184;-77
2023/04/29 10:27:21;;;;;;;20.33;16.03;;;18.30;99.90;;;;;;5096367;28;20276;-77
2023/04/29 10:29:48;;;;;;;24.10;16.50;;;18.40;99.90;;;;;;5114390;28;20645;-76
2023/04/29 10:32:15;;;;;;;19.93;14.43;;;18.10;99.90;;;;;;5095766;28;20637;-75
2023/04/29 10:34:42;;;;;;;18.47;13.30;;;17.80;99.90;;;;;;5096183;28;20184;-76
2023/04/29 10:37:12;;;;;;;15.37;12.83;;;17.60;99.90;;;;;;5096099;28;20280;-77
2023/04/29 10:40:15;;;;;;;18.57;12.83;;;17.30;99.90;;;;;;5114480;28;20572;-76
2023/04/29 10:42:51;;;;;;;17.60;13.33;;;16.90;99.90;;;;;;5034837;28;20172;-77
2023/04/29 10:45:27;;;;;;;17.20;14.10;;;16.50;99.90;;;;;;5107117;28;20186;-77
2023/04/29 10:48:01;;;;;;;17.57;13.37;;;16.20;99.90;;;;;;5114272;28;20610;-78
2023/04/29 10:50:44;;;;;;;17.80;13.67;;;16.00;99.90;;;;;;5095645;28;20174;-76
2023/04/29 10:53:09;;;;;;;18.53;13.00;;;16.00;99.90;;;;;;5113871;28;20646;-77
2023/04/29 10:55:36;;;;;;;18.10;13.07;;;16.00;99.90;;;;;;5095616;28;20292;-77
2023/04/29 10:58:23;;;;;;;17.30;12.53;;;16.20;99.90;;;;;;5095612;28;20300;-77
2023/04/29 11:00:48;;;;;;;18.13;13.83;;;16.30;99.90;;;;;;5112816;28;20190;-77
2023/04/29 11:04:00;;;;;;;17.60;12.70;;;16.40;99.90;;;;;;5113899;28;20295;-77
2023/04/29 11:06:35;;;;;;;20.07;13.50;;;16.50;99.90;;;;;;5113678;28;20213;-77
2023/04/29 11:09:03;;;;;;;21.07;12.90;;;16.50;99.90;;;;;;5095218;28;20675;-77
2023/04/29 11:11:47;;;;;;;19.83;13.40;;;16.70;99.90;;;;;;5113964;28;20193;-77
2023/04/29 11:14:15;;;;;;;20.87;13.63;;;17.10;99.90;;;;;;5114135;28;20155;-77
2023/04/29 11:16:57;;;;;;;15.43;12.33;;;17.00;99.90;;;;;;5095154;28;20254;-77
2023/04/29 11:19:31;;;;;;;18.70;12.70;;;16.90;99.90;;;;;;5113533;28;20183;-77
2023/04/29 11:22:22;;;;;;;17.33;11.73;;;17.00;99.90;;;;;;5113473;28;20155;-76
2023/04/29 11:24:54;;;;;;;14.53;11.63;;;16.80;99.90;;;;;;5095393;28;20182;-77
2023/04/29 11:27:25;;;;;;;15.90;11.10;;;16.80;99.90;;;;;;5095585;28;20180;-77
2023/04/29 11:29:57;;;;;;;14.13;10.70;;;16.80;99.90;;;;;;5113584;28;20181;-77
2023/04/29 11:32:25;;;;;;;16.23;12.10;;;16.70;99.90;;;;;;5095218;28;20635;-77
2023/04/29 11:34:52;;;;;;;15.43;10.97;;;16.60;99.90;;;;;;5095611;28;20192;-76
2023/04/29 11:37:25;;;;;;;17.87;11.93;;;17.00;99.90;;;;;;5095161;28;20289;-76
2023/04/29 11:40:00;;;;;;;16.33;10.80;;;17.30;99.90;;;;;;5113415;28;20179;-76
2023/04/29 11:42:26;;;;;;;15.70;11.70;;;17.50;99.90;;;;;;5114510;28;20199;-77
2023/04/29 11:44:58;;;;;;;13.87;10.60;;;17.50;99.90;;;;;;5113383;28;20159;-76
2023/04/29 11:47:28;;;;;;;15.57;11.57;;;17.60;99.90;;;;;;5113935;28;20156;-76
2023/04/29 11:50:02;;;;;;;13.93;11.53;;;17.50;99.90;;;;;;5095414;28;20202;-76
2023/04/29 11:52:28;;;;;;;16.77;12.10;;;17.50;99.90;;;;;;5113472;28;20164;-77
2023/04/29 11:54:53;;;;;;;18.07;12.50;;;17.40;99.90;;;;;;5113346;28;20175;-77
2023/04/29 11:57:19;;;;;;;18.40;12.70;;;17.10;99.90;;;;;;5094924;28;20262;-76
2023/04/29 11:59:46;;;;;;;17.87;12.87;;;17.10;99.90;;;;;;5113426;28;20580;-77
2023/04/29 12:02:12;;;;;;;15.67;12.10;;;17.00;99.90;;;;;;5113540;28;20197;-77
2023/04/29 12:04:45;;;;;;;17.87;12.80;;;16.80;99.90;;;;;;5113914;28;20596;-76
2023/04/29 12:07:15;;;;;;;16.93;12.03;;;16.90;99.90;;;;;;5095458;28;20183;-77
2023/04/29 12:09:45;;;;;;;15.73;12.17;;;17.30;99.90;;;;;;5094726;28;20744;-77
2023/04/29 12:12:11;;;;;;;17.90;12.33;;;17.50;99.90;;;;;;5095719;28;20201;-76
2023/04/29 12:14:37;;;;;;;17.63;12.27;;;17.50;99.90;;;;;;5113216;28;20263;-76
2023/04/29 12:17:04;;;;;;;13.13;10.70;;;17.50;99.90;;;;;;5112982;28;20207;-79
2023/04/29 12:19:30;;;;;;;21.87;11.40;;;17.70;99.90;;;;;;5112867;28;20176;-75
2023/04/29 12:22:01;;;;;;;14.87;10.93;;;17.60;99.90;;;;;;5096233;28;20173;-77
2023/04/29 12:24:28;;;;;;;17.67;11.27;;;17.70;99.90;;;;;;5116885;28;20620;-77
2023/04/29 12:26:58;;;;;;;13.63;10.23;;;18.10;99.90;;;;;;5116797;28;20211;-76
2023/04/29 12:29:25;;;;;;;11.00;9.20;;;18.10;99.90;;;;;;5098524;28;20225;-77
2023/04/29 12:31:52;;;;;;;13.23;9.20;;;18.60;99.90;;;;;;5117049;28;20521;-77
2023/04/29 12:34:29;;;;;;;15.03;9.67;;;19.00;99.90;;;;;;5117062;28;20179;-77
2023/04/29 12:36:58;;;;;;;12.23;9.80;;;19.10;99.90;;;;;;5098428;28;20753;-76
2023/04/29 12:39:25;;;;;;;13.27;9.00;;;19.60;99.60;;;;;;5098070;28;20189;-77
2023/04/29 12:41:56;;;;;;;12.00;8.73;;;19.50;98.90;;;;;;5116287;28;20515;-77
2023/04/29 12:44:24;;;;;;;10.70;8.53;;;19.70;98.70;;;;;;5116464;28;20293;-76
2023/04/29 12:46:51;;;;;;;11.20;8.40;;;19.10;98.40;;;;;;5116255;28;20663;-77
2023/04/29 12:49:19;;;;;;;9.97;8.03;;;18.60;98.90;;;;;;5098019;28;20193;-77
2023/04/29 12:51:45;;;;;;;11.83;7.83;;;18.70;99.20;;;;;;5116317;28;20177;-77